Time;durP1;ratioP1;P1;durP2;ratioP2;P2;SDS_P1;SDS_P2;PMS_P1;PMS_P2;Temp;Humidity;BMP_temperature;BMP_pressure;BME280_temperature;BME280_humidity;BME280_pressure;Samples;Min_cycle;Max_cycle;Signal;HPM_P1;HPM_P2
2023/05/26 00:01:30;;;;;;;2.07;1.97;;;12.50;99.90;;;;;;5014011;28;20175;-69
2023/05/26 00:03:57;;;;;;;2.90;2.70;;;12.40;99.90;;;;;;5013753;28;20436;-69
2023/05/26 00:06:23;;;;;;;2.50;2.30;;;12.30;99.90;;;;;;5013641;28;20414;-68
2023/05/26 00:08:49;;;;;;;2.73;1.50;;;12.30;99.90;;;;;;5013815;28;20891;-69
2023/05/26 00:11:14;;;;;;;1.67;1.33;;;12.40;99.90;;;;;;5013711;28;20573;-68
2023/05/26 00:13:40;;;;;;;2.83;2.53;;;12.40;99.90;;;;;;5013538;28;20214;-69
2023/05/26 00:16:06;;;;;;;2.93;2.73;;;12.40;99.90;;;;;;5013603;28;20254;-69
2023/05/26 00:18:33;;;;;;;4.43;2.97;;;12.30;99.90;;;;;;5013738;28;20226;-69
2023/05/26 00:21:00;;;;;;;2.13;1.93;;;12.40;99.90;;;;;;5013827;28;20262;-69
2023/05/26 00:23:26;;;;;;;9.67;3.77;;;12.40;99.90;;;;;;4996193;28;20815;-68
2023/05/26 00:25:52;;;;;;;2.90;2.70;;;12.30;99.90;;;;;;5013470;28;20421;-69
2023/05/26 00:28:18;;;;;;;2.00;1.90;;;12.40;99.90;;;;;;5013677;28;20895;-69
2023/05/26 00:30:44;;;;;;;2.10;1.83;;;12.30;99.90;;;;;;5013420;28;20419;-69
2023/05/26 00:33:10;;;;;;;1.60;1.53;;;12.30;99.90;;;;;;5013554;28;20292;-69
2023/05/26 00:35:36;;;;;;;2.90;2.70;;;12.30;99.90;;;;;;5013254;28;20176;-69
2023/05/26 00:38:02;;;;;;;3.73;2.27;;;12.30;99.90;;;;;;5016150;28;20410;-69
2023/05/26 00:40:28;;;;;;;1.33;1.33;;;12.20;99.90;;;;;;5017533;28;20413;-69
2023/05/26 00:42:53;;;;;;;1.03;0.80;;;12.30;99.90;;;;;;5017562;28;20713;-69
2023/05/26 00:45:19;;;;;;;2.50;1.63;;;12.20;99.90;;;;;;5017395;28;20175;-69
2023/05/26 00:47:45;;;;;;;2.00;0.97;;;12.20;99.90;;;;;;5017291;28;20236;-68
2023/05/26 00:50:13;;;;;;;2.10;2.00;;;12.20;99.90;;;;;;5017278;28;20256;-68
2023/05/26 00:52:40;;;;;;;2.97;2.77;;;12.20;99.90;;;;;;5017151;28;20206;-69
2023/05/26 00:55:07;;;;;;;1.97;1.83;;;12.20;99.90;;;;;;5017188;28;20412;-69
2023/05/26 00:57:33;;;;;;;1.70;1.33;;;12.30;99.90;;;;;;5017031;28;20529;-69
2023/05/26 00:59:59;;;;;;;1.90;1.70;;;12.30;99.90;;;;;;5017598;28;20416;-68
2023/05/26 01:02:27;;;;;;;3.03;2.80;;;12.30;99.90;;;;;;5017251;28;20516;-69
2023/05/26 01:04:53;;;;;;;3.23;1.70;;;12.30;99.90;;;;;;5017318;28;20410;-69
2023/05/26 01:07:20;;;;;;;1.10;1.00;;;12.20;99.90;;;;;;5016978;28;20414;-69
2023/05/26 01:09:47;;;;;;;2.07;1.87;;;12.20;99.90;;;;;;5017050;28;20429;-69
2023/05/26 01:12:26;;;;;;;2.57;1.97;;;12.30;99.90;;;;;;5016724;28;20535;-69
2023/05/26 01:15:04;;;;;;;1.93;1.67;;;12.30;99.90;;;;;;5017114;28;20406;-69
2023/05/26 01:17:58;;;;;;;15.30;2.97;;;12.20;99.90;;;;;;5016819;28;20412;-69
2023/05/26 01:20:29;;;;;;;1.97;1.87;;;12.20;99.90;;;;;;5008679;28;20422;-68
2023/05/26 01:23:16;;;;;;;3.73;2.10;;;12.10;99.90;;;;;;5016916;28;20832;-69
2023/05/26 01:26:16;;;;;;;2.17;1.20;;;12.20;99.90;;;;;;5016570;28;20418;-69
2023/05/26 01:28:43;;;;;;;5.83;3.63;;;12.30;99.90;;;;;;4993508;28;20418;-69
2023/05/26 01:31:09;;;;;;;1.87;1.77;;;12.30;99.90;;;;;;5016705;28;20441;-69
2023/05/26 01:33:35;;;;;;;1.53;1.53;;;12.30;99.90;;;;;;5016423;28;21025;-69
2023/05/26 01:36:01;;;;;;;2.43;2.23;;;12.30;99.90;;;;;;5016500;28;20407;-69
2023/05/26 01:38:28;;;;;;;3.80;2.83;;;12.30;99.90;;;;;;5016531;28;20250;-68
2023/05/26 01:41:21;;;;;;;1.53;1.43;;;12.30;99.90;;;;;;5016492;28;20441;-69
2023/05/26 01:44:04;;;;;;;5.93;2.40;;;12.30;99.90;;;;;;4990751;28;20537;-68
2023/05/26 01:46:38;;;;;;;2.37;2.27;;;12.40;99.90;;;;;;5016259;28;20410;-69
2023/05/26 01:49:07;;;;;;;2.40;2.30;;;12.30;99.90;;;;;;5016353;28;20406;-68
2023/05/26 01:51:35;;;;;;;2.43;2.17;;;12.30;99.90;;;;;;5016272;28;20414;-68
2023/05/26 01:54:05;;;;;;;5.73;2.53;;;12.20;99.90;;;;;;5015949;28;20454;-69
2023/05/26 01:56:33;;;;;;;2.40;2.20;;;12.20;99.90;;;;;;5016047;28;20398;-68
2023/05/26 01:59:01;;;;;;;1.00;1.00;;;12.20;99.90;;;;;;5016151;28;20408;-68
2023/05/26 02:01:27;;;;;;;2.20;2.00;;;12.30;99.90;;;;;;5016081;28;20464;-68
2023/05/26 02:03:54;;;;;;;2.67;2.47;;;12.30;99.90;;;;;;5015880;28;20845;-68
2023/05/26 02:06:20;;;;;;;3.70;2.30;;;12.30;99.90;;;;;;5015781;28;20422;-69
2023/05/26 02:08:46;;;;;;;1.40;1.40;;;12.30;99.90;;;;;;5016013;28;20406;-69
2023/05/26 02:11:12;;;;;;;1.43;1.33;;;12.30;99.90;;;;;;5015653;28;20433;-69
2023/05/26 02:13:38;;;;;;;2.10;1.87;;;12.20;99.90;;;;;;5015822;28;20532;-68
2023/05/26 02:16:03;;;;;;;0.80;0.80;;;12.20;99.90;;;;;;5015697;28;20179;-69
2023/05/26 02:18:29;;;;;;;1.90;1.80;;;12.20;99.90;;;;;;5015733;28;20182;-69
2023/05/26 02:20:55;;;;;;;1.20;1.17;;;12.10;99.90;;;;;;5015819;28;20167;-69
2023/05/26 02:23:20;;;;;;;1.80;1.20;;;12.10;99.90;;;;;;5015523;28;20212;-68
2023/05/26 02:25:46;;;;;;;3.20;1.33;;;12.00;99.90;;;;;;5015393;28;20582;-69
2023/05/26 02:28:11;;;;;;;3.07;2.63;;;12.00;99.90;;;;;;5015726;28;20179;-69
2023/05/26 02:30:37;;;;;;;4.30;3.00;;;12.00;99.90;;;;;;5015453;28;20172;-69
2023/05/26 02:33:04;;;;;;;1.27;1.27;;;11.90;99.90;;;;;;5015443;28;20232;-69
2023/05/26 02:35:30;;;;;;;1.20;1.10;;;11.90;99.90;;;;;;5015299;28;20180;-69
2023/05/26 02:37:56;;;;;;;1.83;1.73;;;11.80;99.90;;;;;;5015299;28;20418;-69
2023/05/26 02:40:21;;;;;;;2.60;2.50;;;11.80;99.90;;;;;;5015218;28;20168;-69
2023/05/26 02:42:47;;;;;;;1.40;1.30;;;11.70;99.90;;;;;;5015215;28;20199;-69
2023/05/26 02:45:12;;;;;;;1.70;1.60;;;11.80;99.90;;;;;;5015167;28;20651;-69
2023/05/26 02:47:39;;;;;;;3.03;2.70;;;11.80;99.90;;;;;;5015004;28;20172;-69
2023/05/26 02:50:05;;;;;;;1.80;1.43;;;11.90;99.90;;;;;;5015288;28;20168;-69
2023/05/26 02:52:31;;;;;;;3.37;2.80;;;11.90;99.90;;;;;;5015391;28;20552;-69
2023/05/26 02:54:57;;;;;;;4.53;1.30;;;11.90;99.90;;;;;;5015212;28;20420;-69
2023/05/26 02:57:23;;;;;;;1.50;1.33;;;11.90;99.90;;;;;;5014849;28;20485;-69
2023/05/26 02:59:48;;;;;;;2.07;1.93;;;12.00;99.90;;;;;;5014439;28;20167;-68
2023/05/26 03:02:14;;;;;;;1.43;1.33;;;12.00;99.90;;;;;;5015032;28;20199;-69
2023/05/26 03:04:40;;;;;;;4.83;1.53;;;12.00;99.90;;;;;;5014776;28;20548;-69
2023/05/26 03:07:07;;;;;;;1.43;1.20;;;12.00;99.90;;;;;;5014679;28;20183;-69
2023/05/26 03:09:34;;;;;;;1.70;1.60;;;12.00;99.90;;;;;;5014760;28;20203;-68
2023/05/26 03:11:59;;;;;;;1.77;1.67;;;12.10;99.90;;;;;;5014672;28;20808;-69
2023/05/26 03:14:25;;;;;;;5.67;2.00;;;12.10;99.90;;;;;;5014635;28;20419;-69
2023/05/26 03:16:51;;;;;;;3.27;3.00;;;12.10;99.90;;;;;;5014475;28;20182;-68
2023/05/26 03:19:17;;;;;;;5.47;2.57;;;12.00;99.90;;;;;;5014793;28;20225;-68
2023/05/26 03:21:43;;;;;;;3.23;2.60;;;11.90;99.90;;;;;;5014440;28;20493;-69
2023/05/26 03:24:08;;;;;;;0.60;0.60;;;12.00;99.90;;;;;;5014148;28;20819;-69
2023/05/26 03:26:34;;;;;;;1.03;0.70;;;12.10;99.90;;;;;;5014272;28;20174;-69
2023/05/26 03:29:00;;;;;;;2.43;2.23;;;12.10;99.90;;;;;;5014357;28;20648;-69
2023/05/26 03:31:26;;;;;;;2.10;1.73;;;12.00;99.90;;;;;;5014276;28;20172;-68
2023/05/26 03:33:52;;;;;;;3.53;1.80;;;12.00;99.90;;;;;;5014151;28;20450;-68
2023/05/26 03:36:18;;;;;;;3.57;1.97;;;11.90;99.90;;;;;;5014081;28;20536;-69
2023/05/26 03:38:43;;;;;;;1.00;1.00;;;11.90;99.90;;;;;;5014480;28;20172;-68
2023/05/26 03:41:09;;;;;;;1.53;1.43;;;11.90;99.90;;;;;;5014306;28;20398;-68
2023/05/26 03:43:35;;;;;;;8.17;2.30;;;11.90;99.90;;;;;;4996615;28;20448;-68
2023/05/26 03:46:00;;;;;;;2.63;2.43;;;11.90;99.90;;;;;;5013866;28;20183;-69
2023/05/26 03:48:26;;;;;;;1.10;1.10;;;11.90;99.90;;;;;;5014263;28;20184;-68
2023/05/26 03:50:52;;;;;;;3.07;2.00;;;11.90;99.90;;;;;;5014397;28;20179;-69
2023/05/26 03:53:18;;;;;;;2.60;2.50;;;12.00;99.90;;;;;;5014052;28;20453;-68
2023/05/26 03:55:43;;;;;;;1.20;1.20;;;12.00;99.90;;;;;;5013888;28;20587;-68
2023/05/26 03:58:09;;;;;;;2.10;1.70;;;12.00;99.90;;;;;;5014217;28;20628;-69
2023/05/26 04:00:35;;;;;;;9.97;4.13;;;12.00;99.90;;;;;;5014015;28;20183;-69
2023/05/26 04:03:01;;;;;;;4.03;3.73;;;12.00;99.90;;;;;;5013743;28;20457;-69
2023/05/26 04:05:27;;;;;;;2.57;2.40;;;12.10;99.90;;;;;;5013717;28;20171;-68
2023/05/26 04:07:52;;;;;;;1.67;1.60;;;12.10;99.90;;;;;;5014110;28;20855;-69
2023/05/26 04:10:18;;;;;;;2.90;2.70;;;12.20;99.90;;;;;;5013954;28;20444;-69
2023/05/26 04:12:44;;;;;;;2.50;1.53;;;12.20;99.90;;;;;;5012515;28;20211;-68
2023/05/26 04:15:10;;;;;;;2.63;2.43;;;12.30;99.90;;;;;;5013700;28;20175;-68
2023/05/26 04:17:36;;;;;;;2.33;2.23;;;12.40;99.90;;;;;;5013487;28;20174;-69
2023/05/26 04:20:06;;;;;;;1.73;1.63;;;12.40;99.90;;;;;;5013591;28;20502;-69
2023/05/26 04:22:32;;;;;;;2.30;2.10;;;12.50;99.90;;;;;;5013549;28;20812;-69
2023/05/26 04:24:58;;;;;;;3.33;2.30;;;12.50;99.90;;;;;;5013749;28;20413;-69
2023/05/26 04:27:24;;;;;;;4.30;1.47;;;12.50;99.90;;;;;;5013349;28;20183;-69
2023/05/26 04:29:50;;;;;;;4.03;3.47;;;12.50;99.90;;;;;;5013689;28;20174;-68
2023/05/26 04:32:16;;;;;;;1.67;1.57;;;12.50;99.90;;;;;;5013346;28;20472;-69
2023/05/26 04:34:44;;;;;;;4.87;3.97;;;12.60;99.90;;;;;;5013498;28;20907;-69
2023/05/26 04:37:10;;;;;;;1.67;1.57;;;12.80;99.90;;;;;;5013409;28;20174;-69
2023/05/26 04:39:35;;;;;;;4.13;3.20;;;13.20;99.90;;;;;;5013689;28;20416;-69
2023/05/26 04:42:03;;;;;;;4.87;2.47;;;13.60;99.90;;;;;;5013532;28;20525;-68
2023/05/26 04:44:30;;;;;;;1.30;1.20;;;13.80;99.90;;;;;;5013390;28;20246;-69
2023/05/26 04:46:56;;;;;;;3.13;2.93;;;14.00;99.90;;;;;;5013304;28;20410;-68
2023/05/26 04:49:23;;;;;;;1.30;1.20;;;14.20;99.90;;;;;;5013277;28;20493;-69
2023/05/26 04:51:58;;;;;;;2.03;1.90;;;14.70;99.90;;;;;;5013423;28;20178;-69
2023/05/26 04:54:24;;;;;;;1.30;1.20;;;14.70;99.60;;;;;;5013375;28;20509;-68
2023/05/26 04:56:50;;;;;;;2.00;1.73;;;14.90;98.90;;;;;;5013161;28;20429;-69
2023/05/26 04:59:17;;;;;;;1.90;1.80;;;15.20;98.50;;;;;;5013286;28;20647;-69
2023/05/26 05:01:44;;;;;;;1.53;1.30;;;15.50;98.00;;;;;;5013366;28;20391;-69
2023/05/26 05:04:10;;;;;;;1.23;1.23;;;15.80;96.80;;;;;;5013316;28;20964;-69
2023/05/26 05:06:35;;;;;;;2.10;1.50;;;16.10;95.80;;;;;;5013073;28;20481;-69
2023/05/26 05:09:02;;;;;;;0.83;0.80;;;16.50;95.50;;;;;;5013242;28;20667;-69
2023/05/26 05:11:27;;;;;;;1.67;1.57;;;17.00;95.30;;;;;;5013168;28;20191;-69
2023/05/26 05:13:53;;;;;;;0.80;0.80;;;17.50;94.70;;;;;;5012996;28;20454;-69
2023/05/26 05:16:19;;;;;;;0.80;0.80;;;17.80;93.00;;;;;;5012992;28;20169;-69
2023/05/26 05:18:44;;;;;;;2.33;2.17;;;17.90;93.00;;;;;;5013199;28;20285;-69
2023/05/26 05:21:10;;;;;;;0.80;0.80;;;18.10;92.50;;;;;;5013161;28;20170;-69
2023/05/26 05:23:35;;;;;;;0.93;0.90;;;18.20;91.60;;;;;;5014680;28;20198;-69
2023/05/26 05:26:01;;;;;;;1.57;1.47;;;18.30;91.80;;;;;;5016590;28;20183;-69
2023/05/26 05:28:27;;;;;;;1.10;1.00;;;18.50;91.10;;;;;;5016639;28;20203;-69
2023/05/26 05:30:53;;;;;;;1.60;1.37;;;18.50;90.50;;;;;;5016654;28;20413;-69
2023/05/26 05:33:18;;;;;;;1.20;1.20;;;18.60;91.00;;;;;;5016414;28;20202;-69
2023/05/26 05:35:45;;;;;;;1.07;0.97;;;18.60;90.60;;;;;;5016467;28;20170;-69
2023/05/26 05:38:12;;;;;;;2.93;2.00;;;18.70;90.80;;;;;;5016573;28;20418;-69
2023/05/26 05:40:37;;;;;;;3.27;3.07;;;18.70;90.40;;;;;;5016577;28;20506;-69
2023/05/26 05:43:03;;;;;;;2.20;1.00;;;18.90;90.40;;;;;;5016321;28;20513;-69
2023/05/26 05:45:29;;;;;;;0.80;0.80;;;19.40;90.50;;;;;;4998525;28;20180;-69
2023/05/26 05:47:55;;;;;;;1.60;1.50;;;19.80;90.10;;;;;;5016267;28;20225;-69
2023/05/26 05:50:21;;;;;;;1.50;1.40;;;20.30;88.60;;;;;;5016362;28;20415;-69
2023/05/26 05:52:47;;;;;;;1.50;1.30;;;20.70;88.30;;;;;;5016306;28;20264;-69
2023/05/26 05:55:12;;;;;;;1.87;1.77;;;20.90;84.10;;;;;;5016261;28;20180;-69
2023/05/26 05:57:38;;;;;;;1.60;1.43;;;20.90;85.70;;;;;;5015914;28;20253;-69
2023/05/26 06:00:05;;;;;;;1.37;1.27;;;21.10;84.90;;;;;;5016150;28;20174;-69
2023/05/26 06:02:31;;;;;;;1.03;0.93;;;21.30;83.20;;;;;;5015919;28;20196;-69
2023/05/26 06:04:56;;;;;;;2.30;0.97;;;21.40;81.50;;;;;;5016049;28;20499;-69
2023/05/26 06:07:22;;;;;;;1.40;1.30;;;21.10;80.00;;;;;;5015966;28;20203;-69
2023/05/26 06:09:48;;;;;;;2.40;1.27;;;21.20;81.20;;;;;;5015746;28;20190;-69
2023/05/26 06:12:13;;;;;;;1.87;1.53;;;21.60;81.10;;;;;;5015701;28;20211;-69
2023/05/26 06:14:39;;;;;;;0.97;0.97;;;22.10;78.70;;;;;;5015830;28;20168;-69
2023/05/26 06:17:04;;;;;;;1.77;1.23;;;22.70;78.20;;;;;;5015695;28;20193;-69
2023/05/26 06:19:31;;;;;;;0.90;0.90;;;23.40;77.10;;;;;;5015869;28;20180;-70
2023/05/26 06:21:57;;;;;;;1.27;1.27;;;23.90;84.00;;;;;;5015773;28;20203;-69
2023/05/26 06:24:22;;;;;;;2.40;2.20;;;23.90;71.60;;;;;;5015608;28;20427;-70
2023/05/26 06:26:48;;;;;;;1.67;1.57;;;23.80;68.70;;;;;;5015416;28;20182;-69
2023/05/26 06:29:16;;;;;;;1.63;1.50;;;23.80;68.50;;;;;;5015596;28;20179;-70
2023/05/26 06:31:42;;;;;;;1.33;1.23;;;23.80;65.90;;;;;;5015787;28;20170;-69
2023/05/26 06:34:08;;;;;;;1.03;1.00;;;24.20;67.90;;;;;;5014919;28;20489;-70
2023/05/26 06:36:33;;;;;;;1.77;0.80;;;24.70;64.80;;;;;;5014883;28;20762;-70
2023/05/26 06:38:59;;;;;;;1.70;1.60;;;24.90;61.50;;;;;;5014119;28;20271;-69
2023/05/26 06:41:26;;;;;;;1.23;1.13;;;25.00;62.10;;;;;;5015275;28;20176;-69
2023/05/26 06:43:52;;;;;;;1.37;1.27;;;25.10;60.70;;;;;;5015220;28;20224;-70
2023/05/26 06:46:18;;;;;;;1.53;1.40;;;25.30;60.20;;;;;;5015030;28;20424;-69
2023/05/26 06:48:43;;;;;;;1.50;1.50;;;25.40;59.80;;;;;;5015342;28;20183;-70
2023/05/26 06:51:10;;;;;;;2.77;1.63;;;25.30;60.00;;;;;;5015286;28;20257;-70
2023/05/26 06:53:37;;;;;;;1.00;1.00;;;25.10;59.00;;;;;;4997252;28;20683;-70
2023/05/26 06:56:05;;;;;;;2.40;1.77;;;24.90;59.60;;;;;;5014912;28;20410;-70
2023/05/26 06:58:32;;;;;;;1.77;1.40;;;24.80;61.00;;;;;;5015057;28;20378;-69
2023/05/26 07:01:02;;;;;;;1.73;1.40;;;25.20;60.20;;;;;;5015034;28;20406;-70
2023/05/26 07:03:29;;;;;;;1.83;1.20;;;25.90;58.20;;;;;;5015090;28;20941;-70
2023/05/26 07:05:56;;;;;;;1.37;1.27;;;26.50;57.70;;;;;;5014548;28;20418;-70
2023/05/26 07:08:22;;;;;;;2.10;1.90;;;26.90;56.30;;;;;;5014975;28;20422;-70
2023/05/26 07:10:48;;;;;;;2.83;1.17;;;27.00;55.70;;;;;;5014926;28;20758;-70
2023/05/26 07:13:14;;;;;;;1.20;1.10;;;27.00;56.90;;;;;;5014532;28;20481;-70
2023/05/26 07:15:40;;;;;;;1.37;1.27;;;27.10;56.70;;;;;;5014594;28;20172;-69
2023/05/26 07:18:06;;;;;;;2.37;2.17;;;27.10;55.80;;;;;;5014773;28;20652;-69
2023/05/26 07:20:32;;;;;;;1.47;1.10;;;27.30;56.60;;;;;;5014731;28;20406;-69
2023/05/26 07:22:57;;;;;;;2.37;1.00;;;26.60;56.00;;;;;;5014645;28;20203;-69
2023/05/26 07:25:23;;;;;;;1.00;0.90;;;26.30;56.00;;;;;;5014341;28;20171;-69
2023/05/26 07:27:49;;;;;;;1.80;1.60;;;26.20;56.30;;;;;;5014813;28;20603;-70
2023/05/26 07:30:15;;;;;;;1.10;1.10;;;25.90;56.00;;;;;;4996984;28;20314;-70
2023/05/26 07:32:40;;;;;;;1.50;1.40;;;26.20;57.50;;;;;;5014244;28;20691;-69
2023/05/26 07:35:06;;;;;;;1.80;1.37;;;25.70;56.40;;;;;;5014260;28;20407;-69
2023/05/26 07:37:32;;;;;;;1.50;0.90;;;25.70;58.10;;;;;;5014122;28;20174;-70
2023/05/26 07:39:57;;;;;;;1.63;1.53;;;26.90;55.60;;;;;;5014210;28;20407;-69
2023/05/26 07:42:23;;;;;;;1.83;1.10;;;28.90;53.60;;;;;;5014186;28;20195;-70
2023/05/26 07:44:49;;;;;;;2.30;1.03;;;30.80;52.30;;;;;;5014146;28;20207;-70
2023/05/26 07:47:15;;;;;;;1.63;1.53;;;32.30;50.60;;;;;;5013701;28;20540;-70
2023/05/26 07:49:40;;;;;;;1.17;1.07;;;34.00;46.00;;;;;;5014220;28;20183;-70
2023/05/26 07:52:06;;;;;;;1.90;1.30;;;35.20;43.40;;;;;;5013831;28;20246;-68
2023/05/26 07:54:32;;;;;;;1.50;1.37;;;35.60;38.90;;;;;;5013980;28;20167;-68
2023/05/26 07:56:58;;;;;;;1.33;1.27;;;33.90;38.90;;;;;;5013893;28;20174;-68
2023/05/26 07:59:23;;;;;;;1.90;1.17;;;32.30;40.60;;;;;;5014031;28;20187;-68
2023/05/26 08:01:49;;;;;;;2.77;1.10;;;31.90;41.50;;;;;;5013855;28;20242;-68
2023/05/26 08:04:15;;;;;;;1.50;1.30;;;32.10;41.40;;;;;;5013791;28;20164;-68
2023/05/26 08:06:40;;;;;;;1.03;1.03;;;32.20;40.70;;;;;;5013571;28;20643;-68
2023/05/26 08:09:06;;;;;;;1.50;1.40;;;32.30;39.60;;;;;;5013937;28;20172;-68
2023/05/26 08:11:32;;;;;;;2.20;2.00;;;31.30;41.60;;;;;;5013589;28;20187;-68
2023/05/26 08:13:58;;;;;;;1.40;1.27;;;30.90;42.20;;;;;;5013572;28;20282;-68
2023/05/26 08:16:24;;;;;;;1.97;1.87;;;30.10;44.20;;;;;;5013496;28;20175;-68
2023/05/26 08:18:50;;;;;;;2.27;1.57;;;30.70;43.50;;;;;;5013608;28;20442;-68
2023/05/26 08:21:16;;;;;;;1.67;1.57;;;31.30;41.70;;;;;;5013639;28;20430;-68
2023/05/26 08:23:42;;;;;;;1.43;1.33;;;31.30;42.80;;;;;;5013572;28;20202;-68
2023/05/26 08:26:08;;;;;;;1.27;1.20;;;32.10;42.00;;;;;;5013416;28;20540;-68
2023/05/26 08:28:34;;;;;;;1.70;1.60;;;31.80;41.80;;;;;;5013707;28;20174;-68
2023/05/26 08:31:00;;;;;;;1.87;1.60;;;31.40;41.30;;;;;;5013745;28;20412;-68
2023/05/26 08:33:25;;;;;;;1.60;1.13;;;30.50;42.60;;;;;;5013575;28;20480;-68
2023/05/26 08:35:51;;;;;;;2.57;1.23;;;29.70;44.20;;;;;;5013333;28;20210;-68
2023/05/26 08:38:17;;;;;;;1.20;1.10;;;29.70;43.50;;;;;;5013601;28;20175;-69
2023/05/26 08:40:42;;;;;;;1.40;1.30;;;29.00;43.60;;;;;;5013688;28;20183;-69
2023/05/26 08:43:12;;;;;;;2.60;1.60;;;28.50;44.10;;;;;;5013519;28;20203;-69
2023/05/26 08:45:38;;;;;;;3.30;2.37;;;28.00;46.40;;;;;;5013361;28;20238;-69
2023/05/26 08:48:10;;;;;;;1.73;1.60;;;27.40;48.10;;;;;;5013275;28;20626;-69
2023/05/26 08:50:36;;;;;;;2.93;1.23;;;28.10;47.80;;;;;;5013602;28;20410;-69
2023/05/26 08:53:04;;;;;;;0.87;0.70;;;29.60;47.00;;;;;;5013206;28;20446;-69
2023/05/26 08:55:31;;;;;;;1.67;1.57;;;30.40;43.00;;;;;;5013220;28;20418;-69
2023/05/26 08:58:00;;;;;;;2.80;1.73;;;30.00;42.30;;;;;;5014259;28;20394;-69
2023/05/26 09:00:30;;;;;;;1.40;1.10;;;29.30;43.10;;;;;;5017084;28;20799;-69
2023/05/26 09:03:01;;;;;;;2.97;2.10;;;29.80;44.30;;;;;;5017077;28;20437;-69
2023/05/26 09:05:29;;;;;;;1.37;1.27;;;30.10;42.20;;;;;;5016895;28;20410;-69
2023/05/26 09:07:55;;;;;;;1.37;1.27;;;30.80;42.60;;;;;;5016964;28;20777;-69
2023/05/26 09:10:21;;;;;;;1.47;1.30;;;31.20;41.00;;;;;;5017155;28;20399;-69
2023/05/26 09:12:48;;;;;;;1.80;1.50;;;31.70;41.50;;;;;;5016909;28;20310;-69
2023/05/26 09:15:20;;;;;;;2.43;1.20;;;31.70;39.90;;;;;;5017107;28;20783;-69
2023/05/26 09:17:47;;;;;;;1.47;1.23;;;31.60;40.10;;;;;;5017145;28;20801;-69
2023/05/26 09:20:13;;;;;;;2.10;1.20;;;31.90;40.00;;;;;;5016701;28;20402;-69
2023/05/26 09:22:38;;;;;;;1.60;1.50;;;30.80;41.60;;;;;;5016759;28;20914;-69
2023/05/26 09:25:04;;;;;;;4.37;1.33;;;29.30;43.60;;;;;;5016908;28;20175;-69
2023/05/26 09:27:30;;;;;;;1.13;1.03;;;29.30;43.70;;;;;;5016536;28;20190;-69
2023/05/26 09:30:00;;;;;;;1.43;1.33;;;29.10;44.30;;;;;;5016648;28;20414;-69
2023/05/26 09:32:29;;;;;;;2.80;2.20;;;29.10;46.00;;;;;;5016480;28;20206;-69
2023/05/26 09:35:05;;;;;;;6.10;2.00;;;30.20;44.20;;;;;;5016819;28;20441;-69
2023/05/26 09:37:32;;;;;;;0.93;0.93;;;31.50;44.70;;;;;;5016447;28;20921;-69
2023/05/26 09:40:11;;;;;;;1.77;1.67;;;31.90;40.10;;;;;;5016632;28;20500;-69
2023/05/26 09:42:53;;;;;;;1.30;1.20;;;31.80;40.80;;;;;;5016651;28;20433;-69
2023/05/26 09:45:18;;;;;;;1.70;1.30;;;32.40;40.20;;;;;;5016565;28;20410;-69
2023/05/26 09:47:44;;;;;;;1.37;1.27;;;32.30;40.20;;;;;;5016148;28;20406;-69
2023/05/26 09:50:10;;;;;;;1.53;1.43;;;32.00;40.80;;;;;;5016460;28;20230;-69
2023/05/26 09:52:36;;;;;;;1.70;1.47;;;31.80;41.30;;;;;;5016281;28;20234;-69
2023/05/26 09:55:03;;;;;;;3.00;1.03;;;31.40;40.50;;;;;;5016179;28;20192;-69
2023/05/26 09:57:30;;;;;;;1.47;1.37;;;31.60;41.60;;;;;;5016042;28;20398;-69
2023/05/26 09:59:57;;;;;;;5.40;2.27;;;31.60;42.20;;;;;;4998606;28;20897;-69
2023/05/26 10:02:25;;;;;;;1.30;1.20;;;31.30;40.40;;;;;;5016013;28;20502;-69
2023/05/26 10:04:52;;;;;;;2.50;1.63;;;31.10;40.30;;;;;;5016178;28;20410;-69
2023/05/26 10:07:19;;;;;;;1.80;1.70;;;31.30;40.30;;;;;;5015709;28;20420;-69
2023/05/26 10:10:02;;;;;;;1.97;1.27;;;30.70;40.50;;;;;;5015882;28;20398;-69
2023/05/26 10:12:32;;;;;;;2.03;1.83;;;29.90;42.10;;;;;;5015621;28;20473;-69
2023/05/26 10:14:58;;;;;;;3.57;1.30;;;28.30;43.90;;;;;;5015965;28;20824;-69
2023/05/26 10:17:25;;;;;;;1.00;1.00;;;27.60;46.40;;;;;;5015718;28;20819;-69
2023/05/26 10:19:53;;;;;;;1.13;0.97;;;27.60;46.10;;;;;;5015683;28;20766;-69
2023/05/26 10:22:27;;;;;;;1.63;1.20;;;27.40;45.30;;;;;;5015609;28;20426;-68
2023/05/26 10:25:06;;;;;;;1.93;1.30;;;27.50;48.40;;;;;;5015760;28;20894;-69
2023/05/26 10:27:54;;;;;;;1.23;1.20;;;28.00;44.80;;;;;;5015531;28;20482;-69
2023/05/26 10:30:22;;;;;;;1.70;1.30;;;28.10;45.30;;;;;;5015983;28;20430;-69
2023/05/26 10:32:56;;;;;;;1.20;1.10;;;28.40;45.00;;;;;;5015332;28;20461;-69
2023/05/26 10:35:27;;;;;;;1.17;1.07;;;28.30;45.90;;;;;;5015246;28;20814;-69
2023/05/26 10:38:01;;;;;;;2.50;1.33;;;28.20;46.20;;;;;;5015651;28;20438;-69
2023/05/26 10:40:37;;;;;;;0.80;0.80;;;28.80;44.80;;;;;;5015465;28;20969;-69
2023/05/26 10:43:21;;;;;;;1.23;1.10;;;29.30;44.80;;;;;;5015693;28;20432;-69
2023/05/26 10:45:53;;;;;;;1.43;1.13;;;29.90;42.30;;;;;;5015000;28;20418;-69
2023/05/26 10:48:19;;;;;;;2.03;1.60;;;30.10;43.40;;;;;;5015358;28;20438;-69
2023/05/26 10:51:00;;;;;;;1.53;1.20;;;29.70;42.00;;;;;;5015231;28;20444;-69
2023/05/26 10:53:30;;;;;;;1.63;1.50;;;29.30;47.20;;;;;;5014949;28;20261;-69
2023/05/26 10:56:04;;;;;;;1.30;1.17;;;29.30;43.40;;;;;;5015125;28;20841;-69
2023/05/26 10:58:36;;;;;;;1.50;1.40;;;29.20;45.50;;;;;;5015184;28;20395;-69
2023/05/26 11:01:04;;;;;;;1.07;1.07;;;29.10;45.80;;;;;;5015139;28;20395;-68
2023/05/26 11:03:36;;;;;;;1.00;0.90;;;28.40;44.70;;;;;;5014792;28;20791;-69
2023/05/26 11:06:02;;;;;;;0.90;0.90;;;27.70;46.90;;;;;;4997153;28;20878;-69
2023/05/26 11:08:45;;;;;;;1.07;0.87;;;27.30;48.00;;;;;;5014660;28;20438;-69
2023/05/26 11:11:13;;;;;;;1.57;1.43;;;26.80;48.10;;;;;;5014783;28;20421;-69
2023/05/26 11:13:46;;;;;;;1.60;1.37;;;26.70;48.00;;;;;;5014533;28;20468;-69
2023/05/26 11:16:25;;;;;;;1.63;1.13;;;26.80;47.20;;;;;;5014883;28;20391;-69
2023/05/26 11:18:57;;;;;;;1.00;1.00;;;26.90;46.20;;;;;;5014714;28;20402;-69
2023/05/26 11:21:27;;;;;;;0.80;0.80;;;27.00;46.40;;;;;;5014146;28;20405;-69
2023/05/26 11:23:54;;;;;;;1.40;1.13;;;26.90;47.10;;;;;;5014411;28;20423;-69
2023/05/26 11:26:21;;;;;;;2.47;2.27;;;26.80;49.40;;;;;;5014349;28;20486;-69
2023/05/26 11:28:48;;;;;;;1.13;1.03;;;26.90;50.40;;;;;;4996811;28;20792;-68
2023/05/26 11:31:18;;;;;;;1.40;1.30;;;26.90;47.70;;;;;;5014532;28;20891;-69
2023/05/26 11:33:46;;;;;;;0.97;0.87;;;26.80;47.40;;;;;;5014205;28;20433;-69
2023/05/26 11:36:16;;;;;;;1.40;1.00;;;26.50;47.70;;;;;;5014141;28;20469;-69
2023/05/26 11:38:44;;;;;;;0.90;0.90;;;26.10;47.80;;;;;;5014299;28;20403;-69
2023/05/26 11:41:11;;;;;;;1.23;1.13;;;25.90;49.80;;;;;;5014218;28;20442;-69
2023/05/26 11:43:38;;;;;;;3.70;1.40;;;25.70;48.70;;;;;;5014134;28;20423;-68
2023/05/26 11:46:07;;;;;;;1.77;1.47;;;25.70;48.20;;;;;;5013953;28;20388;-69
2023/05/26 11:48:41;;;;;;;1.03;1.03;;;25.70;49.20;;;;;;5014139;28;20410;-69
2023/05/26 11:51:12;;;;;;;1.30;1.20;;;25.70;50.40;;;;;;5014344;28;20402;-69
2023/05/26 11:53:39;;;;;;;1.33;1.23;;;25.90;51.80;;;;;;5013919;28;20520;-69
2023/05/26 11:56:09;;;;;;;0.90;0.70;;;26.20;50.60;;;;;;5013890;28;20377;-68
2023/05/26 11:58:44;;;;;;;1.63;1.00;;;26.40;48.40;;;;;;5014179;28;20478;-69
2023/05/26 12:01:10;;;;;;;1.40;1.17;;;26.20;48.70;;;;;;5013856;28;20409;-69
2023/05/26 12:03:40;;;;;;;1.50;1.40;;;26.20;48.60;;;;;;5013893;28;20430;-69
2023/05/26 12:06:10;;;;;;;1.03;1.03;;;26.10;49.50;;;;;;5013893;28;20647;-69
2023/05/26 12:09:02;;;;;;;0.70;0.70;;;25.70;47.90;;;;;;4996212;28;20885;-68
2023/05/26 12:11:37;;;;;;;0.90;0.90;;;25.60;48.60;;;;;;5013831;28;20433;-69
2023/05/26 12:14:11;;;;;;;4.13;1.80;;;25.70;48.30;;;;;;5013558;28;20456;-69
2023/05/26 12:16:41;;;;;;;1.53;1.07;;;25.90;48.20;;;;;;4995970;28;20381;-69
2023/05/26 12:19:17;;;;;;;2.10;1.50;;;25.90;47.00;;;;;;5013930;28;20427;-69
2023/05/26 12:21:50;;;;;;;0.93;0.93;;;26.10;48.10;;;;;;5013791;28;20512;-69
2023/05/26 12:24:30;;;;;;;0.93;0.90;;;26.40;50.30;;;;;;5013589;28;20398;-69
2023/05/26 12:26:55;;;;;;;1.33;1.10;;;26.20;47.60;;;;;;5013569;28;20392;-69
2023/05/26 12:29:21;;;;;;;1.10;1.00;;;26.00;47.80;;;;;;5013456;28;20903;-69
2023/05/26 12:31:52;;;;;;;1.63;1.30;;;25.80;52.70;;;;;;5013324;28;20183;-69
2023/05/26 12:34:23;;;;;;;1.33;0.90;;;25.90;48.70;;;;;;5012837;28;20671;-69
2023/05/26 12:36:49;;;;;;;0.83;0.83;;;25.70;46.80;;;;;;5013334;28;20464;-69
2023/05/26 12:39:16;;;;;;;0.80;0.80;;;25.50;47.70;;;;;;5013436;28;20416;-69
2023/05/26 12:41:42;;;;;;;1.57;1.47;;;25.20;47.00;;;;;;5013777;28;20384;-69
2023/05/26 12:44:08;;;;;;;2.60;1.40;;;24.90;47.90;;;;;;5013389;28;20484;-69
2023/05/26 12:46:34;;;;;;;1.70;1.23;;;24.80;49.30;;;;;;5013258;28;20857;-68
2023/05/26 12:49:01;;;;;;;5.23;1.53;;;24.60;50.40;;;;;;5013320;28;20450;-69
2023/05/26 12:51:27;;;;;;;1.40;1.30;;;24.30;49.70;;;;;;5013537;28;20449;-68